sensor_id;sensor_type;location;lat;lon;timestamp;pressure;altitude;pressure_sealevel;temperature;humidity
74329;BME280;62749;51.982;5.916;2023-09-08T00:01:39;101523.84;;;22.17;67.43
74329;BME280;62749;51.982;5.916;2023-09-08T00:04:08;101527.00;;;22.11;68.15
74329;BME280;62749;51.982;5.916;2023-09-08T00:06:40;101528.84;;;22.11;68.76
74329;BME280;62749;51.982;5.916;2023-09-08T00:09:10;101526.78;;;22.14;68.56
74329;BME280;62749;51.982;5.916;2023-09-08T00:11:40;101527.00;;;22.11;68.39
74329;BME280;62749;51.982;5.916;2023-09-08T00:14:09;101535.44;;;22.06;67.67
74329;BME280;62749;51.982;5.916;2023-09-08T00:16:38;101537.63;;;22.01;68.62
74329;BME280;62749;51.982;5.916;2023-09-08T00:19:09;101535.69;;;22.03;69.24
74329;BME280;62749;51.982;5.916;2023-09-08T00:21:42;101538.28;;;22.05;68.72
74329;BME280;62749;51.982;5.916;2023-09-08T00:24:12;101537.91;;;21.98;68.50
74329;BME280;62749;51.982;5.916;2023-09-08T00:26:41;101544.03;;;22.00;68.53
74329;BME280;62749;51.982;5.916;2023-09-08T00:29:11;101539.84;;;21.96;69.19
74329;BME280;62749;51.982;5.916;2023-09-08T00:31:42;101537.63;;;21.90;69.11
74329;BME280;62749;51.982;5.916;2023-09-08T00:36:50;101532.63;;;21.85;69.66
74329;BME280;62749;51.982;5.916;2023-09-08T00:39:20;101527.22;;;21.85;70.47
74329;BME280;62749;51.982;5.916;2023-09-08T00:41:49;101529.81;;;21.87;70.35
74329;BME280;62749;51.982;5.916;2023-09-08T00:44:23;101524.78;;;21.82;69.09
74329;BME280;62749;51.982;5.916;2023-09-08T00:46:52;101533.94;;;21.80;69.06
74329;BME280;62749;51.982;5.916;2023-09-08T00:49:22;101535.91;;;21.77;70.20
74329;BME280;62749;51.982;5.916;2023-09-08T00:51:55;101535.28;;;21.74;69.43
74329;BME280;62749;51.982;5.916;2023-09-08T00:54:25;101531.00;;;21.71;70.05
74329;BME280;62749;51.982;5.916;2023-09-08T00:56:56;101527.59;;;21.69;70.07
74329;BME280;62749;51.982;5.916;2023-09-08T00:59:25;101531.59;;;21.64;70.57
74329;BME280;62749;51.982;5.916;2023-09-08T01:01:55;101531.06;;;21.58;70.71
74329;BME280;62749;51.982;5.916;2023-09-08T01:04:25;101528.50;;;21.57;69.54
74329;BME280;62749;51.982;5.916;2023-09-08T01:06:58;101527.16;;;21.51;69.84
74329;BME280;62749;51.982;5.916;2023-09-08T01:09:28;101524.81;;;21.46;70.33
74329;BME280;62749;51.982;5.916;2023-09-08T01:11:58;101526.63;;;21.46;70.01
74329;BME280;62749;51.982;5.916;2023-09-08T01:14:29;101521.50;;;21.43;70.48
74329;BME280;62749;51.982;5.916;2023-09-08T01:16:58;101533.25;;;21.42;70.24
74329;BME280;62749;51.982;5.916;2023-09-08T01:19:28;101517.22;;;21.40;70.73
74329;BME280;62749;51.982;5.916;2023-09-08T01:22:13;101525.28;;;21.40;70.28
74329;BME280;62749;51.982;5.916;2023-09-08T01:25:09;101521.13;;;21.36;70.24
74329;BME280;62749;51.982;5.916;2023-09-08T01:27:46;101519.88;;;21.29;70.11
74329;BME280;62749;51.982;5.916;2023-09-08T01:30:16;101505.78;;;21.14;70.21
74329;BME280;62749;51.982;5.916;2023-09-08T01:32:46;101517.75;;;21.21;70.28
74329;BME280;62749;51.982;5.916;2023-09-08T01:35:17;101522.28;;;21.21;71.22
74329;BME280;62749;51.982;5.916;2023-09-08T01:37:48;101513.50;;;21.19;71.52
74329;BME280;62749;51.982;5.916;2023-09-08T01:40:20;101520.34;;;21.23;71.38
74329;BME280;62749;51.982;5.916;2023-09-08T01:42:50;101522.41;;;21.19;72.08
74329;BME280;62749;51.982;5.916;2023-09-08T01:45:19;101519.84;;;21.18;71.36
74329;BME280;62749;51.982;5.916;2023-09-08T01:47:49;101511.50;;;21.09;71.91
74329;BME280;62749;51.982;5.916;2023-09-08T01:50:18;101516.63;;;21.12;72.09
74329;BME280;62749;51.982;5.916;2023-09-08T01:52:50;101512.69;;;21.05;72.38
74329;BME280;62749;51.982;5.916;2023-09-08T01:55:23;101515.03;;;21.10;71.62
74329;BME280;62749;51.982;5.916;2023-09-08T01:57:52;101503.06;;;21.03;71.23
74329;BME280;62749;51.982;5.916;2023-09-08T02:00:21;101512.94;;;21.02;72.48
74329;BME280;62749;51.982;5.916;2023-09-08T02:02:51;101511.34;;;20.99;71.26
74329;BME280;62749;51.982;5.916;2023-09-08T02:05:20;101499.84;;;20.97;72.32
74329;BME280;62749;51.982;5.916;2023-09-08T02:07:52;101479.63;;;20.80;72.03
74329;BME280;62749;51.982;5.916;2023-09-08T02:10:24;101499.72;;;20.99;72.62
74329;BME280;62749;51.982;5.916;2023-09-08T02:12:54;101506.06;;;20.98;72.13
74329;BME280;62749;51.982;5.916;2023-09-08T02:15:23;101498.09;;;20.85;72.56
74329;BME280;62749;51.982;5.916;2023-09-08T02:17:53;101506.00;;;20.87;72.90
74329;BME280;62749;51.982;5.916;2023-09-08T02:20:31;101508.94;;;20.83;72.79
74329;BME280;62749;51.982;5.916;2023-09-08T02:23:05;101503.91;;;20.79;73.81
74329;BME280;62749;51.982;5.916;2023-09-08T02:25:37;101504.22;;;20.74;73.35
74329;BME280;62749;51.982;5.916;2023-09-08T02:28:06;101506.41;;;20.69;73.34
74329;BME280;62749;51.982;5.916;2023-09-08T02:30:36;101504.69;;;20.68;74.75
74329;BME280;62749;51.982;5.916;2023-09-08T02:33:05;101493.53;;;20.61;74.03
74329;BME280;62749;51.982;5.916;2023-09-08T02:35:36;101499.75;;;20.62;73.82
74329;BME280;62749;51.982;5.916;2023-09-08T02:38:06;101497.31;;;20.59;74.86
74329;BME280;62749;51.982;5.916;2023-09-08T02:40:38;101491.19;;;20.57;73.90
74329;BME280;62749;51.982;5.916;2023-09-08T02:43:07;101503.00;;;20.54;74.84
74329;BME280;62749;51.982;5.916;2023-09-08T02:45:37;101496.16;;;20.50;73.75
74329;BME280;62749;51.982;5.916;2023-09-08T02:48:06;101503.25;;;20.51;74.87
74329;BME280;62749;51.982;5.916;2023-09-08T02:50:36;101498.72;;;20.51;74.02
74329;BME280;62749;51.982;5.916;2023-09-08T02:53:05;101495.28;;;20.49;73.86
74329;BME280;62749;51.982;5.916;2023-09-08T02:55:34;101501.41;;;20.51;73.52
74329;BME280;62749;51.982;5.916;2023-09-08T02:58:06;101471.28;;;20.35;74.41
74329;BME280;62749;51.982;5.916;2023-09-08T03:00:36;101506.00;;;20.49;74.65
74329;BME280;62749;51.982;5.916;2023-09-08T03:03:05;101496.50;;;20.45;74.47
74329;BME280;62749;51.982;5.916;2023-09-08T03:05:35;101501.31;;;20.40;74.44
74329;BME280;62749;51.982;5.916;2023-09-08T03:08:05;101501.44;;;20.38;74.76
74329;BME280;62749;51.982;5.916;2023-09-08T03:10:34;101502.16;;;20.41;74.67
74329;BME280;62749;51.982;5.916;2023-09-08T03:13:06;101505.59;;;20.43;75.29
74329;BME280;62749;51.982;5.916;2023-09-08T03:15:35;101501.19;;;20.42;74.82
74329;BME280;62749;51.982;5.916;2023-09-08T03:18:05;101503.25;;;20.38;75.03
74329;BME280;62749;51.982;5.916;2023-09-08T03:20:34;101499.81;;;20.36;75.09
74329;BME280;62749;51.982;5.916;2023-09-08T03:23:04;101500.91;;;20.33;74.56
74329;BME280;62749;51.982;5.916;2023-09-08T03:25:33;101502.00;;;20.31;74.70
74329;BME280;62749;51.982;5.916;2023-09-08T03:28:03;101502.09;;;20.29;75.57
74329;BME280;62749;51.982;5.916;2023-09-08T03:30:35;101483.25;;;20.18;74.66
74329;BME280;62749;51.982;5.916;2023-09-08T03:33:04;101498.66;;;20.27;75.50
74329;BME280;62749;51.982;5.916;2023-09-08T03:35:34;101497.06;;;20.24;75.80
74329;BME280;62749;51.982;5.916;2023-09-08T03:38:03;101488.38;;;20.21;75.02
74329;BME280;62749;51.982;5.916;2023-09-08T03:43:39;101491.91;;;20.21;74.57
74329;BME280;62749;51.982;5.916;2023-09-08T03:46:11;101495.25;;;20.25;74.56
74329;BME280;62749;51.982;5.916;2023-09-08T03:48:41;101495.47;;;20.22;74.07
74329;BME280;62749;51.982;5.916;2023-09-08T03:51:10;101492.78;;;20.22;74.60
74329;BME280;62749;51.982;5.916;2023-09-08T03:53:39;101494.38;;;20.24;75.01
74329;BME280;62749;51.982;5.916;2023-09-08T03:56:09;101489.13;;;20.23;74.57
74329;BME280;62749;51.982;5.916;2023-09-08T03:58:38;101490.19;;;20.20;74.70
74329;BME280;62749;51.982;5.916;2023-09-08T04:01:07;101485.84;;;20.19;75.20
74329;BME280;62749;51.982;5.916;2023-09-08T04:03:39;101488.72;;;20.16;75.64
74329;BME280;62749;51.982;5.916;2023-09-08T04:06:10;101496.03;;;20.14;75.73
74329;BME280;62749;51.982;5.916;2023-09-08T04:08:39;101484.88;;;20.07;74.45
74329;BME280;62749;51.982;5.916;2023-09-08T04:11:08;101492.72;;;20.11;75.09
74329;BME280;62749;51.982;5.916;2023-09-08T04:13:38;101495.38;;;20.11;73.82
74329;BME280;62749;51.982;5.916;2023-09-08T04:16:07;101478.13;;;20.02;74.39
74329;BME280;62749;51.982;5.916;2023-09-08T04:18:39;101493.66;;;20.10;73.79
74329;BME280;62749;51.982;5.916;2023-09-08T04:21:08;101482.53;;;20.03;74.79
74329;BME280;62749;51.982;5.916;2023-09-08T04:23:38;101488.97;;;20.00;74.70
74329;BME280;62749;51.982;5.916;2023-09-08T04:26:07;101478.34;;;19.99;74.01
74329;BME280;62749;51.982;5.916;2023-09-08T04:28:37;101482.72;;;20.00;74.01
74329;BME280;62749;51.982;5.916;2023-09-08T04:31:06;101476.75;;;19.96;74.26
74329;BME280;62749;51.982;5.916;2023-09-08T04:33:35;101481.47;;;19.92;75.51
74329;BME280;62749;51.982;5.916;2023-09-08T04:36:07;101482.66;;;19.88;74.69
74329;BME280;62749;51.982;5.916;2023-09-08T04:38:37;101494.41;;;19.86;74.56
74329;BME280;62749;51.982;5.916;2023-09-08T04:41:07;101489.06;;;19.86;75.81
74329;BME280;62749;51.982;5.916;2023-09-08T04:43:36;101477.56;;;19.84;75.64
74329;BME280;62749;51.982;5.916;2023-09-08T04:46:06;101487.88;;;19.90;75.66
74329;BME280;62749;51.982;5.916;2023-09-08T04:48:35;101491.53;;;19.89;75.73
74329;BME280;62749;51.982;5.916;2023-09-08T04:51:07;101490.69;;;19.88;75.96
74329;BME280;62749;51.982;5.916;2023-09-08T04:53:37;101486.38;;;19.86;75.75
74329;BME280;62749;51.982;5.916;2023-09-08T04:56:06;101485.50;;;19.85;75.61
74329;BME280;62749;51.982;5.916;2023-09-08T04:58:35;101484.88;;;19.82;75.25
74329;BME280;62749;51.982;5.916;2023-09-08T05:01:05;101487.00;;;19.76;75.12
74329;BME280;62749;51.982;5.916;2023-09-08T05:03:34;101489.16;;;19.71;76.29
74329;BME280;62749;51.982;5.916;2023-09-08T05:06:03;101487.66;;;19.67;75.54
74329;BME280;62749;51.982;5.916;2023-09-08T05:08:35;101491.41;;;19.65;76.16
74329;BME280;62749;51.982;5.916;2023-09-08T05:11:05;101487.13;;;19.62;76.40
74329;BME280;62749;51.982;5.916;2023-09-08T05:13:34;101478.53;;;19.57;75.80
74329;BME280;62749;51.982;5.916;2023-09-08T05:16:04;101480.16;;;19.59;75.79
74329;BME280;62749;51.982;5.916;2023-09-08T05:18:40;101487.44;;;19.57;76.32
74329;BME280;62749;51.982;5.916;2023-09-08T05:21:09;101486.69;;;19.55;76.13
74329;BME280;62749;51.982;5.916;2023-09-08T05:23:43;101494.41;;;19.60;76.85
74329;BME280;62749;51.982;5.916;2023-09-08T05:26:12;101487.97;;;19.62;76.33
74329;BME280;62749;51.982;5.916;2023-09-08T05:28:42;101492.25;;;19.65;76.85
74329;BME280;62749;51.982;5.916;2023-09-08T05:31:11;101490.97;;;19.71;76.78
74329;BME280;62749;51.982;5.916;2023-09-08T05:33:40;101485.94;;;19.66;76.38
74329;BME280;62749;51.982;5.916;2023-09-08T05:36:10;101491.28;;;19.66;76.12
74329;BME280;62749;51.982;5.916;2023-09-08T05:38:39;101486.56;;;19.70;76.02
74329;BME280;62749;51.982;5.916;2023-09-08T05:41:11;101484.66;;;19.72;77.13
74329;BME280;62749;51.982;5.916;2023-09-08T05:43:41;101490.75;;;19.74;76.58
74329;BME280;62749;51.982;5.916;2023-09-08T05:46:10;101490.56;;;19.77;76.14
74329;BME280;62749;51.982;5.916;2023-09-08T05:48:40;101487.13;;;19.75;77.05
74329;BME280;62749;51.982;5.916;2023-09-08T05:51:09;101487.97;;;19.75;76.46
74329;BME280;62749;51.982;5.916;2023-09-08T05:53:38;101494.06;;;19.77;76.67
74329;BME280;62749;51.982;5.916;2023-09-08T05:56:10;101501.38;;;19.75;76.75
74329;BME280;62749;51.982;5.916;2023-09-08T05:58:40;101497.44;;;19.81;77.38
74329;BME280;62749;51.982;5.916;2023-09-08T06:01:09;101496.34;;;19.84;76.09
74329;BME280;62749;51.982;5.916;2023-09-08T06:03:38;101496.22;;;19.85;77.06
74329;BME280;62749;51.982;5.916;2023-09-08T06:06:37;101500.13;;;19.94;76.88
74329;BME280;62749;51.982;5.916;2023-09-08T06:09:06;101498.53;;;19.91;75.77
74329;BME280;62749;51.982;5.916;2023-09-08T06:11:41;101505.28;;;19.97;75.83
74329;BME280;62749;51.982;5.916;2023-09-08T06:14:10;101494.22;;;19.89;75.85
74329;BME280;62749;51.982;5.916;2023-09-08T06:16:39;101501.94;;;20.06;75.76
74329;BME280;62749;51.982;5.916;2023-09-08T06:19:09;101503.94;;;20.16;76.39
74329;BME280;62749;51.982;5.916;2023-09-08T06:21:38;101492.59;;;20.12;75.58
74329;BME280;62749;51.982;5.916;2023-09-08T06:24:08;101509.50;;;20.26;75.84
74329;BME280;62749;51.982;5.916;2023-09-08T06:26:37;101506.06;;;20.36;75.83
74329;BME280;62749;51.982;5.916;2023-09-08T06:29:11;101494.03;;;20.42;75.37
74329;BME280;62749;51.982;5.916;2023-09-08T06:31:41;101496.59;;;20.44;75.09
74329;BME280;62749;51.982;5.916;2023-09-08T06:34:10;101504.97;;;20.52;74.31
74329;BME280;62749;51.982;5.916;2023-09-08T06:36:39;101505.25;;;20.60;74.98
74329;BME280;62749;51.982;5.916;2023-09-08T06:39:10;101510.25;;;20.65;73.92
74329;BME280;62749;51.982;5.916;2023-09-08T06:41:39;101500.50;;;20.64;73.56
74329;BME280;62749;51.982;5.916;2023-09-08T06:44:11;101505.44;;;20.70;73.14
74329;BME280;62749;51.982;5.916;2023-09-08T06:46:41;101508.94;;;20.83;74.22
74329;BME280;62749;51.982;5.916;2023-09-08T06:49:10;101511.69;;;20.95;73.95
74329;BME280;62749;51.982;5.916;2023-09-08T06:51:40;101513.81;;;21.03;72.62
74329;BME280;62749;51.982;5.916;2023-09-08T06:54:09;101517.31;;;21.03;73.22
74329;BME280;62749;51.982;5.916;2023-09-08T06:56:38;101513.44;;;21.07;72.60
74329;BME280;62749;51.982;5.916;2023-09-08T06:59:08;101521.69;;;21.17;71.75
74329;BME280;62749;51.982;5.916;2023-09-08T07:01:40;101518.28;;;21.26;71.40
74329;BME280;62749;51.982;5.916;2023-09-08T07:04:09;101524.16;;;21.31;71.46
74329;BME280;62749;51.982;5.916;2023-09-08T07:06:38;101532.47;;;21.28;70.25
74329;BME280;62749;51.982;5.916;2023-09-08T07:09:10;101519.16;;;21.38;71.08
74329;BME280;62749;51.982;5.916;2023-09-08T07:11:39;101522.59;;;21.40;70.75
74329;BME280;62749;51.982;5.916;2023-09-08T07:14:08;101528.34;;;21.47;70.81
74329;BME280;62749;51.982;5.916;2023-09-08T07:16:45;101526.78;;;21.56;70.24
74329;BME280;62749;51.982;5.916;2023-09-08T07:19:15;101532.72;;;21.61;70.21
74329;BME280;62749;51.982;5.916;2023-09-08T07:21:44;101524.91;;;21.69;71.24
74329;BME280;62749;51.982;5.916;2023-09-08T07:24:13;101523.19;;;21.80;70.18
74329;BME280;62749;51.982;5.916;2023-09-08T07:26:43;101525.41;;;21.86;69.75
74329;BME280;62749;51.982;5.916;2023-09-08T07:29:12;101525.91;;;21.91;69.10
74329;BME280;62749;51.982;5.916;2023-09-08T07:31:41;101529.22;;;22.06;69.80
74329;BME280;62749;51.982;5.916;2023-09-08T07:34:13;101529.31;;;22.04;68.28
74329;BME280;62749;51.982;5.916;2023-09-08T07:36:43;101529.59;;;22.13;68.64
74329;BME280;62749;51.982;5.916;2023-09-08T07:39:12;101524.31;;;22.22;68.57
74329;BME280;62749;51.982;5.916;2023-09-08T07:41:42;101507.31;;;22.22;67.66
74329;BME280;62749;51.982;5.916;2023-09-08T07:44:17;101524.66;;;22.41;68.63
74329;BME280;62749;51.982;5.916;2023-09-08T07:46:47;101523.44;;;22.56;67.74
74329;BME280;62749;51.982;5.916;2023-09-08T07:49:20;101524.53;;;22.65;67.01
74329;BME280;62749;51.982;5.916;2023-09-08T07:51:50;101520.13;;;22.64;66.11
74329;BME280;62749;51.982;5.916;2023-09-08T07:54:19;101516.06;;;22.70;67.31
74329;BME280;62749;51.982;5.916;2023-09-08T07:56:49;101522.16;;;22.83;67.23
74329;BME280;62749;51.982;5.916;2023-09-08T07:59:18;101509.44;;;22.85;66.08
74329;BME280;62749;51.982;5.916;2023-09-08T08:01:48;101528.59;;;23.03;65.26
74329;BME280;62749;51.982;5.916;2023-09-08T08:04:19;101517.06;;;23.01;64.91
74329;BME280;62749;51.982;5.916;2023-09-08T08:06:49;101520.44;;;23.14;65.25
74329;BME280;62749;51.982;5.916;2023-09-08T08:09:18;101520.84;;;23.10;64.56
74329;BME280;62749;51.982;5.916;2023-09-08T08:11:48;101520.56;;;23.24;66.43
74329;BME280;62749;51.982;5.916;2023-09-08T08:14:29;101516.69;;;23.38;66.89
74329;BME280;62749;51.982;5.916;2023-09-08T08:16:58;101518.47;;;23.49;65.15
74329;BME280;62749;51.982;5.916;2023-09-08T08:19:30;101524.66;;;23.61;64.81
74329;BME280;62749;51.982;5.916;2023-09-08T08:22:00;101515.84;;;23.59;63.49
74329;BME280;62749;51.982;5.916;2023-09-08T08:24:29;101522.63;;;23.74;64.39
74329;BME280;62749;51.982;5.916;2023-09-08T08:26:58;101522.13;;;23.90;64.53
74329;BME280;62749;51.982;5.916;2023-09-08T08:29:29;101523.88;;;24.01;63.41
74329;BME280;62749;51.982;5.916;2023-09-08T08:31:58;101518.69;;;24.10;63.48
74329;BME280;62749;51.982;5.916;2023-09-08T08:34:31;101517.72;;;24.20;62.48
74329;BME280;62749;51.982;5.916;2023-09-08T08:37:00;101513.34;;;24.29;62.73
74329;BME280;62749;51.982;5.916;2023-09-08T08:39:30;101524.44;;;24.36;61.98
74329;BME280;62749;51.982;5.916;2023-09-08T08:42:06;101520.91;;;24.35;62.54
74329;BME280;62749;51.982;5.916;2023-09-08T08:44:37;101520.66;;;24.48;62.32
74329;BME280;62749;51.982;5.916;2023-09-08T08:47:07;101518.84;;;24.59;61.83
74329;BME280;62749;51.982;5.916;2023-09-08T08:49:43;101521.44;;;24.70;61.94
74329;BME280;62749;51.982;5.916;2023-09-08T08:52:15;101524.31;;;24.78;62.11
74329;BME280;62749;51.982;5.916;2023-09-08T08:54:44;101522.34;;;24.90;63.56
74329;BME280;62749;51.982;5.916;2023-09-08T08:57:14;101521.31;;;25.01;61.04
74329;BME280;62749;51.982;5.916;2023-09-08T08:59:51;101529.28;;;25.12;61.26
74329;BME280;62749;51.982;5.916;2023-09-08T09:02:22;101526.03;;;25.19;60.90
74329;BME280;62749;51.982;5.916;2023-09-08T09:04:57;101521.75;;;25.26;61.23
74329;BME280;62749;51.982;5.916;2023-09-08T09:07:27;101522.59;;;25.36;61.08
74329;BME280;62749;51.982;5.916;2023-09-08T09:09:57;101519.06;;;25.46;60.71
74329;BME280;62749;51.982;5.916;2023-09-08T09:12:26;101520.72;;;25.56;60.53
74329;BME280;62749;51.982;5.916;2023-09-08T09:14:58;101515.44;;;25.75;59.98
74329;BME280;62749;51.982;5.916;2023-09-08T09:17:29;101519.69;;;25.77;59.33
74329;BME280;62749;51.982;5.916;2023-09-08T09:20:17;101523.56;;;25.75;58.94
74329;BME280;62749;51.982;5.916;2023-09-08T09:22:50;101516.09;;;25.86;58.88
74329;BME280;62749;51.982;5.916;2023-09-08T09:25:24;101516.91;;;25.97;58.10
74329;BME280;62749;51.982;5.916;2023-09-08T09:27:55;101524.00;;;26.08;58.72
74329;BME280;62749;51.982;5.916;2023-09-08T09:30:26;101519.88;;;26.13;58.35
74329;BME280;62749;51.982;5.916;2023-09-08T09:33:00;101527.50;;;26.28;59.16
74329;BME280;62749;51.982;5.916;2023-09-08T09:35:45;101518.88;;;26.42;58.77
74329;BME280;62749;51.982;5.916;2023-09-08T09:38:14;101518.50;;;26.55;58.96
74329;BME280;62749;51.982;5.916;2023-09-08T09:40:45;101526.63;;;26.55;57.97
74329;BME280;62749;51.982;5.916;2023-09-08T09:43:16;101516.28;;;26.69;57.69
74329;BME280;62749;51.982;5.916;2023-09-08T09:45:49;101519.94;;;26.77;56.55
74329;BME280;62749;51.982;5.916;2023-09-08T09:48:24;101521.63;;;26.60;57.70
74329;BME280;62749;51.982;5.916;2023-09-08T09:50:56;101519.75;;;26.61;57.60
74329;BME280;62749;51.982;5.916;2023-09-08T09:53:25;101515.25;;;26.52;57.33
74329;BME280;62749;51.982;5.916;2023-09-08T09:55:56;101527.09;;;26.69;58.33
74329;BME280;62749;51.982;5.916;2023-09-08T09:58:26;101521.16;;;26.65;58.49
74329;BME280;62749;51.982;5.916;2023-09-08T10:00:56;101532.34;;;26.80;56.94
74329;BME280;62749;51.982;5.916;2023-09-08T10:03:27;101528.22;;;26.76;58.27
74329;BME280;62749;51.982;5.916;2023-09-08T10:05:59;101521.50;;;26.80;58.73
74329;BME280;62749;51.982;5.916;2023-09-08T10:08:30;101527.03;;;26.88;58.17
74329;BME280;62749;51.982;5.916;2023-09-08T10:11:06;101515.00;;;26.91;59.12
74329;BME280;62749;51.982;5.916;2023-09-08T10:16:34;101520.81;;;27.14;58.03
74329;BME280;62749;51.982;5.916;2023-09-08T10:19:08;101517.16;;;27.23;57.72
74329;BME280;62749;51.982;5.916;2023-09-08T10:21:45;101512.25;;;27.45;58.38
74329;BME280;62749;51.982;5.916;2023-09-08T10:24:17;101508.81;;;27.61;57.77
74329;BME280;62749;51.982;5.916;2023-09-08T10:26:58;101519.19;;;27.66;56.38
74329;BME280;62749;51.982;5.916;2023-09-08T10:29:27;101518.31;;;27.65;57.60
74329;BME280;62749;51.982;5.916;2023-09-08T10:31:59;101516.53;;;27.74;57.74
74329;BME280;62749;51.982;5.916;2023-09-08T10:34:31;101510.47;;;27.80;56.67
74329;BME280;62749;51.982;5.916;2023-09-08T10:37:18;101510.47;;;27.80;57.43
74329;BME280;62749;51.982;5.916;2023-09-08T10:43:06;101507.28;;;28.20;55.49
74329;BME280;62749;51.982;5.916;2023-09-08T10:45:36;101497.75;;;28.15;56.69
74329;BME280;62749;51.982;5.916;2023-09-08T10:48:06;101503.19;;;28.15;55.75
74329;BME280;62749;51.982;5.916;2023-09-08T10:50:39;101497.56;;;28.09;57.06
74329;BME280;62749;51.982;5.916;2023-09-08T10:53:20;101509.63;;;28.14;55.68
74329;BME280;62749;51.982;5.916;2023-09-08T10:55:52;101507.69;;;28.33;55.72
74329;BME280;62749;51.982;5.916;2023-09-08T11:01:34;101508.38;;;28.43;55.80
74329;BME280;62749;51.982;5.916;2023-09-08T11:04:04;101512.44;;;28.47;55.08
74329;BME280;62749;51.982;5.916;2023-09-08T11:06:37;101491.06;;;28.44;53.87
74329;BME280;62749;51.982;5.916;2023-09-08T11:09:09;101496.69;;;28.68;53.69
74329;BME280;62749;51.982;5.916;2023-09-08T11:11:38;101507.13;;;28.81;53.49
74329;BME280;62749;51.982;5.916;2023-09-08T11:14:08;101498.00;;;28.98;52.32
74329;BME280;62749;51.982;5.916;2023-09-08T11:16:37;101510.19;;;29.60;50.69
74329;BME280;62749;51.982;5.916;2023-09-08T11:19:06;101506.28;;;30.19;48.69
74329;BME280;62749;51.982;5.916;2023-09-08T11:21:37;101502.34;;;30.22;48.57
74329;BME280;62749;51.982;5.916;2023-09-08T11:24:09;101508.59;;;30.39;47.85
74329;BME280;62749;51.982;5.916;2023-09-08T11:26:41;101508.19;;;30.10;46.69
74329;BME280;62749;51.982;5.916;2023-09-08T11:29:13;101506.75;;;29.66;47.97
74329;BME280;62749;51.982;5.916;2023-09-08T11:31:42;101497.59;;;29.51;49.29
74329;BME280;62749;51.982;5.916;2023-09-08T11:34:12;101504.75;;;29.52;50.28
74329;BME280;62749;51.982;5.916;2023-09-08T11:36:43;101504.44;;;29.38;48.67
74329;BME280;62749;51.982;5.916;2023-09-08T11:39:14;101509.22;;;29.36;51.08
74329;BME280;62749;51.982;5.916;2023-09-08T11:41:44;101504.81;;;29.35;50.81
74329;BME280;62749;51.982;5.916;2023-09-08T11:44:15;101496.63;;;29.44;50.18
74329;BME280;62749;51.982;5.916;2023-09-08T11:46:45;101499.31;;;29.60;49.76
74329;BME280;62749;51.982;5.916;2023-09-08T11:49:19;101498.94;;;29.72;51.90
74329;BME280;62749;51.982;5.916;2023-09-08T11:51:49;101503.53;;;29.71;51.14
74329;BME280;62749;51.982;5.916;2023-09-08T11:54:21;101498.75;;;29.73;52.23
74329;BME280;62749;51.982;5.916;2023-09-08T11:56:52;101500.59;;;29.81;49.75
74329;BME280;62749;51.982;5.916;2023-09-08T11:59:21;101487.38;;;29.69;50.01
74329;BME280;62749;51.982;5.916;2023-09-08T12:01:51;101503.34;;;29.81;49.94
74329;BME280;62749;51.982;5.916;2023-09-08T12:04:21;101500.94;;;29.78;49.91
74329;BME280;62749;51.982;5.916;2023-09-08T12:06:52;101508.09;;;29.87;49.60
74329;BME280;62749;51.982;5.916;2023-09-08T12:09:24;101503.00;;;29.84;50.90
74329;BME280;62749;51.982;5.916;2023-09-08T12:11:54;101495.97;;;29.98;49.38
74329;BME280;62749;51.982;5.916;2023-09-08T12:14:23;101498.69;;;29.98;49.92
74329;BME280;62749;51.982;5.916;2023-09-08T12:17:05;101497.63;;;30.15;50.66
74329;BME280;62749;51.982;5.916;2023-09-08T12:19:35;101484.84;;;30.16;49.74
74329;BME280;62749;51.982;5.916;2023-09-08T12:22:06;101487.97;;;30.36;49.88
74329;BME280;62749;51.982;5.916;2023-09-08T12:24:56;101493.88;;;30.48;49.59
74329;BME280;62749;51.982;5.916;2023-09-08T12:27:28;101491.25;;;30.63;49.35
74329;BME280;62749;51.982;5.916;2023-09-08T12:29:59;101485.38;;;30.74;49.66
74329;BME280;62749;51.982;5.916;2023-09-08T12:32:32;101486.91;;;30.77;49.52
74329;BME280;62749;51.982;5.916;2023-09-08T12:35:04;101478.03;;;30.98;50.29
74329;BME280;62749;51.982;5.916;2023-09-08T12:37:33;101485.28;;;31.06;49.47
74329;BME280;62749;51.982;5.916;2023-09-08T12:40:07;101482.28;;;31.24;49.73
74329;BME280;62749;51.982;5.916;2023-09-08T12:42:37;101480.28;;;31.33;49.08
74329;BME280;62749;51.982;5.916;2023-09-08T12:45:07;101479.47;;;31.32;48.88
74329;BME280;62749;51.982;5.916;2023-09-08T12:47:37;101480.69;;;31.45;48.83
74329;BME280;62749;51.982;5.916;2023-09-08T12:50:07;101484.25;;;31.45;49.38
74329;BME280;62749;51.982;5.916;2023-09-08T12:52:36;101474.22;;;31.61;49.35
74329;BME280;62749;51.982;5.916;2023-09-08T12:55:09;101473.47;;;31.67;48.01
74329;BME280;62749;51.982;5.916;2023-09-08T12:57:38;101474.88;;;31.63;48.07
74329;BME280;62749;51.982;5.916;2023-09-08T13:00:09;101475.09;;;31.76;49.12
74329;BME280;62749;51.982;5.916;2023-09-08T13:02:39;101474.88;;;31.78;47.89
74329;BME280;62749;51.982;5.916;2023-09-08T13:05:08;101474.31;;;31.82;47.96
74329;BME280;62749;51.982;5.916;2023-09-08T13:07:38;101444.03;;;31.77;46.82
74329;BME280;62749;51.982;5.916;2023-09-08T13:10:10;101449.69;;;31.76;48.35
74329;BME280;62749;51.982;5.916;2023-09-08T13:12:41;101471.22;;;32.01;46.37
74329;BME280;62749;51.982;5.916;2023-09-08T13:15:10;101470.25;;;32.08;46.56
74329;BME280;62749;51.982;5.916;2023-09-08T13:17:39;101470.53;;;32.13;46.96
74329;BME280;62749;51.982;5.916;2023-09-08T13:20:10;101464.22;;;32.13;48.11
74329;BME280;62749;51.982;5.916;2023-09-08T13:22:40;101459.88;;;32.19;47.27
74329;BME280;62749;51.982;5.916;2023-09-08T13:25:12;101465.06;;;32.13;45.56